Time;durP1;ratioP1;P1;durP2;ratioP2;P2;SDS_P1;SDS_P2;PMS_P1;PMS_P2;Temp;Humidity;BMP_temperature;BMP_pressure;BME280_temperature;BME280_humidity;BME280_pressure;Samples;Min_cycle;Max_cycle;Signal;HPM_P1;HPM_P2
2024/03/24 00:28:59;;;;;;;3.22;1.70;;;;;;;;;;6168438;23;20044;-80
2024/03/24 00:31:25;;;;;;;5.63;1.95;;;;;;;;;;6093557;23;20443;-80
2024/03/24 00:33:50;;;;;;;6.70;1.75;;;;;;;;;;6117316;23;20010;-80
2024/03/24 00:36:16;;;;;;;3.42;1.48;;;;;;;;;;6093442;23;20006;-80
2024/03/24 00:38:42;;;;;;;4.65;1.90;;;;;;;;;;6094002;23;20006;-83
2024/03/24 00:41:07;;;;;;;6.60;2.10;;;;;;;;;;6094218;23;20010;-81
2024/03/24 00:43:35;;;;;;;3.88;1.73;;;;;;;;;;6092018;23;20101;-80
2024/03/24 00:46:01;;;;;;;5.22;2.00;;;;;;;;;;6117905;23;20088;-81
2024/03/24 00:48:26;;;;;;;4.65;2.00;;;;;;;;;;6118093;23;20068;-80
2024/03/24 00:50:52;;;;;;;5.95;1.80;;;;;;;;;;6092493;23;20033;-81
2024/03/24 00:53:18;;;;;;;4.03;1.35;;;;;;;;;;6092473;23;20005;-80
2024/03/24 00:55:46;;;;;;;3.20;1.60;;;;;;;;;;6093324;23;20041;-80
2024/03/24 00:58:12;;;;;;;3.33;1.50;;;;;;;;;;6093819;23;20425;-81
2024/03/24 01:00:38;;;;;;;4.53;1.90;;;;;;;;;;6118890;23;20010;-82
2024/03/24 01:03:04;;;;;;;6.55;1.92;;;;;;;;;;6094780;23;20009;-80
2024/03/24 01:05:30;;;;;;;3.92;1.58;;;;;;;;;;6118416;23;20035;-80
2024/03/24 01:07:55;;;;;;;3.35;1.40;;;;;;;;;;6143198;23;20009;-83
2024/03/24 01:10:21;;;;;;;3.42;1.55;;;;;;;;;;6098392;23;20025;-82
2024/03/24 01:12:50;;;;;;;4.53;1.60;;;;;;;;;;6126514;23;20000;-81
2024/03/24 01:15:16;;;;;;;5.57;1.70;;;;;;;;;;6128955;23;20012;-83
2024/03/24 01:17:43;;;;;;;3.05;1.50;;;;;;;;;;6105772;23;19997;-82
2024/03/24 01:20:12;;;;;;;4.65;1.80;;;;;;;;;;6103877;23;20016;-82
2024/03/24 01:22:38;;;;;;;6.35;2.05;;;;;;;;;;6104102;23;20013;-83
2024/03/24 01:25:04;;;;;;;7.15;1.77;;;;;;;;;;6105189;23;20006;-82
2024/03/24 01:27:30;;;;;;;3.78;1.70;;;;;;;;;;6153776;23;20083;-82
2024/03/24 01:29:56;;;;;;;3.83;1.73;;;;;;;;;;6106595;23;20005;-82
2024/03/24 01:32:21;;;;;;;4.82;1.60;;;;;;;;;;6125089;23;20006;-84
2024/03/24 01:34:47;;;;;;;3.42;1.77;;;;;;;;;;6101941;23;20037;-82
2024/03/24 01:37:13;;;;;;;3.78;1.60;;;;;;;;;;6130987;23;20005;-83
2024/03/24 01:39:42;;;;;;;7.45;1.48;;;;;;;;;;6107642;23;20005;-83
2024/03/24 01:42:07;;;;;;;;;;;;;;;;;;6130902;23;20010;-83
2024/03/24 01:44:33;;;;;;;5.55;1.52;;;;;;;;;;6131642;23;19916;-83
2024/03/24 01:46:58;;;;;;;4.18;1.65;;;;;;;;;;6106952;23;20006;-83
2024/03/24 01:49:24;;;;;;;5.05;1.73;;;;;;;;;;6147914;23;20450;-81
2024/03/24 01:51:49;;;;;;;8.95;1.70;;;;;;;;;;6118797;23;20028;-81
2024/03/24 01:54:15;;;;;;;5.13;1.73;;;;;;;;;;6097442;23;20001;-81
2024/03/24 01:56:43;;;;;;;4.50;1.48;;;;;;;;;;6120375;23;20090;-80
2024/03/24 01:59:10;;;;;;;5.53;1.43;;;;;;;;;;6091726;23;20025;-78
2024/03/24 02:01:39;;;;;;;4.53;1.48;;;;;;;;;;6093362;23;20006;-80
2024/03/24 02:04:09;;;;;;;3.78;1.33;;;;;;;;;;6091312;23;20068;-79
2024/03/24 02:06:35;;;;;;;4.18;1.40;;;;;;;;;;6091676;23;20435;-79
2024/03/24 02:09:01;;;;;;;5.18;1.40;;;;;;;;;;6167073;23;20017;-82
2024/03/24 02:11:27;;;;;;;3.35;1.38;;;;;;;;;;6094421;23;20005;-80
2024/03/24 02:13:57;;;;;;;3.60;1.40;;;;;;;;;;6117933;23;20006;-81
2024/03/24 02:16:23;;;;;;;4.13;1.70;;;;;;;;;;6117694;23;20012;-78
2024/03/24 02:18:48;;;;;;;3.47;1.35;;;;;;;;;;6090708;23;20036;-79
2024/03/24 02:21:14;;;;;;;5.78;1.75;;;;;;;;;;6115732;23;20010;-80
2024/03/24 02:23:39;;;;;;;2.92;1.40;;;;;;;;;;6093704;23;20105;-82
2024/03/24 02:26:06;;;;;;;4.07;1.55;;;;;;;;;;6072986;23;20018;-81
2024/03/24 02:28:31;;;;;;;3.53;1.05;;;;;;;;;;6092276;23;20068;-81
2024/03/24 02:30:57;;;;;;;6.90;1.85;;;;;;;;;;6092252;23;20005;-79
2024/03/24 02:33:23;;;;;;;2.33;1.13;;;;;;;;;;6117541;23;20002;-82
2024/03/24 02:35:49;;;;;;;3.05;1.50;;;;;;;;;;6093210;23;20016;-78
2024/03/24 02:38:16;;;;;;;2.83;1.40;;;;;;;;;;6143149;23;20037;-80
2024/03/24 02:40:42;;;;;;;7.13;1.33;;;;;;;;;;6116563;23;20005;-81
2024/03/24 02:43:07;;;;;;;3.45;1.30;;;;;;;;;;6121004;23;20033;-82
2024/03/24 02:45:33;;;;;;;6.22;1.90;;;;;;;;;;6101683;23;20025;-82
2024/03/24 02:48:00;;;;;;;5.18;1.40;;;;;;;;;;6124409;23;20029;-82
2024/03/24 02:50:26;;;;;;;3.88;1.27;;;;;;;;;;6103097;23;20005;-80
2024/03/24 02:52:52;;;;;;;6.68;1.38;;;;;;;;;;6123412;23;20009;-82
2024/03/24 02:55:24;;;;;;;4.80;1.83;;;;;;;;;;6124577;23;20013;-81
2024/03/24 02:57:49;;;;;;;3.47;1.40;;;;;;;;;;6145656;23;20061;-81
2024/03/24 03:00:15;;;;;;;5.00;1.58;;;;;;;;;;6101809;23;20040;-81
2024/03/24 03:02:41;;;;;;;3.90;1.73;;;;;;;;;;6102506;23;20009;-81
2024/03/24 03:05:07;;;;;;;7.05;1.10;;;;;;;;;;6123644;23;20014;-82
2024/03/24 03:07:32;;;;;;;4.95;1.73;;;;;;;;;;6099758;23;20088;-81
2024/03/24 03:09:58;;;;;;;4.70;1.30;;;;;;;;;;6125559;23;20002;-81
2024/03/24 03:12:23;;;;;;;2.42;1.13;;;;;;;;;;6104247;23;20065;-82
2024/03/24 03:14:49;;;;;;;3.20;1.05;;;;;;;;;;6129630;23;20025;-82
2024/03/24 03:17:15;;;;;;;2.25;1.20;;;;;;;;;;6183698;23;20013;-82
2024/03/24 03:19:41;;;;;;;3.60;1.50;;;;;;;;;;6107426;23;20021;-82
2024/03/24 03:22:07;;;;;;;6.80;1.80;;;;;;;;;;6151583;23;20009;-83
2024/03/24 03:24:33;;;;;;;2.22;1.27;;;;;;;;;;6128352;23;20017;-82
2024/03/24 03:27:04;;;;;;;5.57;1.55;;;;;;;;;;6130904;23;20013;-82
2024/03/24 03:29:31;;;;;;;3.22;1.33;;;;;;;;;;6109526;23;20009;-82
2024/03/24 03:31:59;;;;;;;4.65;1.40;;;;;;;;;;6133688;23;20013;-82
2024/03/24 03:34:26;;;;;;;3.70;1.40;;;;;;;;;;6182650;23;20002;-83
2024/03/24 03:36:51;;;;;;;6.88;1.45;;;;;;;;;;6157532;23;20243;-82
2024/03/24 03:39:18;;;;;;;5.15;1.83;;;;;;;;;;6109421;23;20009;-82
2024/03/24 03:41:45;;;;;;;4.13;1.67;;;;;;;;;;6134413;23;19989;-83
2024/03/24 03:44:11;;;;;;;6.90;1.88;;;;;;;;;;6134051;23;19993;-82
2024/03/24 03:46:39;;;;;;;3.13;1.25;;;;;;;;;;6133691;23;19994;-81
2024/03/24 03:49:05;;;;;;;6.10;1.65;;;;;;;;;;6154487;23;20010;-82
2024/03/24 03:51:37;;;;;;;4.00;1.33;;;;;;;;;;6107992;23;20036;-82
2024/03/24 03:54:06;;;;;;;3.47;1.33;;;;;;;;;;6131715;23;20021;-81
2024/03/24 03:56:31;;;;;;;3.22;1.42;;;;;;;;;;6158139;23;20008;-82
2024/03/24 03:58:57;;;;;;;3.58;1.40;;;;;;;;;;6108800;23;20009;-81
2024/03/24 04:01:24;;;;;;;4.28;1.45;;;;;;;;;;6109187;23;20016;-84
2024/03/24 04:03:50;;;;;;;4.07;1.73;;;;;;;;;;6107125;23;20041;-82
2024/03/24 04:06:16;;;;;;;4.57;1.45;;;;;;;;;;6125472;23;20033;-81
2024/03/24 04:08:42;;;;;;;4.68;1.33;;;;;;;;;;6121833;23;20035;-82
2024/03/24 04:11:08;;;;;;;3.08;1.40;;;;;;;;;;6098463;23;20009;-82
2024/03/24 04:13:33;;;;;;;3.22;1.40;;;;;;;;;;6122006;23;20005;-79
2024/03/24 04:15:59;;;;;;;3.97;1.50;;;;;;;;;;6142636;23;20010;-80
2024/03/24 04:18:25;;;;;;;2.65;1.40;;;;;;;;;;6098104;23;20040;-79
2024/03/24 04:20:51;;;;;;;6.82;1.55;;;;;;;;;;6116130;23;20005;-80
2024/03/24 04:23:17;;;;;;;3.78;1.77;;;;;;;;;;6116363;23;20089;-80
2024/03/24 04:25:43;;;;;;;9.98;1.90;;;;;;;;;;6116349;23;20020;-80
2024/03/24 04:28:08;;;;;;;4.65;1.60;;;;;;;;;;6116679;23;20013;-80
2024/03/24 04:30:34;;;;;;;4.57;1.35;;;;;;;;;;6093118;23;20036;-81
2024/03/24 04:33:00;;;;;;;4.97;1.63;;;;;;;;;;6091558;23;20037;-82
2024/03/24 04:35:25;;;;;;;5.45;1.52;;;;;;;;;;6090454;23;20010;-82
2024/03/24 04:37:51;;;;;;;4.38;1.77;;;;;;;;;;6091892;23;20043;-79
2024/03/24 04:40:18;;;;;;;4.63;1.63;;;;;;;;;;6094883;23;20010;-81
2024/03/24 04:42:45;;;;;;;3.92;1.60;;;;;;;;;;6090386;23;20012;-81
2024/03/24 04:45:10;;;;;;;2.88;1.40;;;;;;;;;;6114880;23;20013;-80
2024/03/24 04:47:36;;;;;;;4.25;1.48;;;;;;;;;;6116183;23;20320;-81
2024/03/24 04:50:06;;;;;;;3.20;1.65;;;;;;;;;;6142258;23;20008;-81
2024/03/24 04:52:31;;;;;;;3.63;1.85;;;;;;;;;;6093267;23;20005;-80
2024/03/24 04:54:57;;;;;;;5.75;1.67;;;;;;;;;;6117981;23;20009;-82
2024/03/24 04:57:22;;;;;;;5.03;1.75;;;;;;;;;;6169293;23;20001;-82
2024/03/24 04:59:48;;;;;;;2.95;1.52;;;;;;;;;;6096670;23;20005;-82
2024/03/24 05:02:15;;;;;;;9.35;1.90;;;;;;;;;;6149366;23;20001;-82
2024/03/24 05:04:41;;;;;;;6.32;1.70;;;;;;;;;;6101003;23;20016;-83
2024/03/24 05:07:07;;;;;;;6.30;1.63;;;;;;;;;;6124820;23;20002;-82
2024/03/24 05:09:33;;;;;;;4.53;1.95;;;;;;;;;;6099341;23;20014;-82
2024/03/24 05:11:58;;;;;;;5.55;1.63;;;;;;;;;;6125068;23;20009;-82
2024/03/24 05:14:24;;;;;;;7.63;3.17;;;;;;;;;;6101838;23;20017;-82
2024/03/24 05:16:51;;;;;;;4.75;1.88;;;;;;;;;;6126967;23;20325;-82
2024/03/24 05:19:17;;;;;;;4.47;1.58;;;;;;;;;;6074883;23;20009;-83
2024/03/24 05:21:44;;;;;;;4.95;1.55;;;;;;;;;;6126716;23;20064;-82
2024/03/24 05:24:10;;;;;;;2.65;1.40;;;;;;;;;;6124446;23;20009;-82
2024/03/24 05:26:35;;;;;;;4.07;1.70;;;;;;;;;;6124902;23;20013;-80
2024/03/24 05:29:03;;;;;;;4.53;1.95;;;;;;;;;;6123425;23;20009;-81
2024/03/24 05:31:29;;;;;;;5.10;1.83;;;;;;;;;;6148747;23;20024;-81
2024/03/24 05:33:55;;;;;;;4.65;1.58;;;;;;;;;;6102940;23;20005;-80
2024/03/24 05:36:23;;;;;;;3.60;1.70;;;;;;;;;;6124167;23;20005;-82
2024/03/24 05:38:49;;;;;;;5.32;2.35;;;;;;;;;;6101113;23;20466;-82
2024/03/24 05:41:15;;;;;;;4.60;2.20;;;;;;;;;;6101046;23;20477;-82
2024/03/24 05:43:42;;;;;;;4.63;1.70;;;;;;;;;;6148510;23;20070;-83
2024/03/24 05:46:08;;;;;;;4.22;1.38;;;;;;;;;;6125052;23;20009;-83
2024/03/24 05:48:36;;;;;;;4.30;1.42;;;;;;;;;;6101098;23;20009;-82
2024/03/24 05:51:05;;;;;;;5.45;1.85;;;;;;;;;;6123670;23;20005;-82
2024/03/24 05:53:32;;;;;;;5.88;1.63;;;;;;;;;;6149294;23;20036;-83
2024/03/24 05:56:02;;;;;;;4.45;1.83;;;;;;;;;;6126434;23;20014;-83
2024/03/24 05:58:28;;;;;;;7.20;2.28;;;;;;;;;;6098252;23;20041;-83
2024/03/24 06:00:55;;;;;;;5.00;2.45;;;;;;;;;;6124554;23;20006;-82
2024/03/24 06:03:20;;;;;;;5.45;2.28;;;;;;;;;;6117962;23;20020;-81
2024/03/24 06:05:49;;;;;;;4.53;1.45;;;;;;;;;;6117475;23;20366;-80
2024/03/24 06:08:14;;;;;;;5.22;1.67;;;;;;;;;;6116059;23;20411;-82
2024/03/24 06:10:41;;;;;;;3.90;1.50;;;;;;;;;;6115806;23;20080;-81
2024/03/24 06:13:07;;;;;;;5.20;1.90;;;;;;;;;;6116448;23;20009;-79
2024/03/24 06:15:33;;;;;;;3.67;1.60;;;;;;;;;;6115669;23;20016;-80
2024/03/24 06:18:05;;;;;;;5.20;2.00;;;;;;;;;;6118105;23;20021;-82
2024/03/24 06:20:39;;;;;;;4.63;1.52;;;;;;;;;;6091969;23;20013;-79
2024/03/24 06:23:05;;;;;;;4.57;1.52;;;;;;;;;;6137113;23;20009;-81
2024/03/24 06:25:32;;;;;;;7.45;1.77;;;;;;;;;;6108594;23;20006;-81
2024/03/24 06:27:57;;;;;;;6.90;1.63;;;;;;;;;;6084713;23;20400;-80
2024/03/24 06:30:24;;;;;;;4.72;1.58;;;;;;;;;;6083980;23;20009;-79
2024/03/24 06:32:49;;;;;;;3.60;1.30;;;;;;;;;;6107360;23;20009;-81
2024/03/24 06:35:15;;;;;;;7.20;1.67;;;;;;;;;;6111742;23;20325;-81
2024/03/24 06:37:41;;;;;;;6.32;1.60;;;;;;;;;;6112414;23;20010;-81
2024/03/24 06:40:08;;;;;;;7.32;2.03;;;;;;;;;;6088399;23;20014;-82
2024/03/24 06:42:39;;;;;;;4.35;1.20;;;;;;;;;;6138313;23;20055;-81
2024/03/24 06:45:08;;;;;;;5.85;1.25;;;;;;;;;;6164683;23;20013;-80
2024/03/24 06:47:33;;;;;;;;;;;;;;;;;;6086568;23;20010;-79
2024/03/24 06:49:59;;;;;;;5.68;1.58;;;;;;;;;;6108880;23;19904;-79
2024/03/24 06:52:25;;;;;;;7.18;1.90;;;;;;;;;;6110146;23;20010;-80
2024/03/24 06:54:50;;;;;;;4.07;1.55;;;;;;;;;;6084878;23;20014;-80
2024/03/24 06:57:16;;;;;;;10.38;1.60;;;;;;;;;;6108901;23;20481;-81
2024/03/24 06:59:41;;;;;;;2.67;1.35;;;;;;;;;;6134191;23;20001;-79
2024/03/24 07:02:08;;;;;;;3.58;1.35;;;;;;;;;;6110323;23;20002;-81
2024/03/24 07:04:36;;;;;;;5.55;1.50;;;;;;;;;;6108538;23;20009;-80
2024/03/24 07:07:02;;;;;;;3.92;1.67;;;;;;;;;;6085327;23;20020;-82
2024/03/24 07:09:27;;;;;;;5.45;1.13;;;;;;;;;;6111163;23;20018;-81
2024/03/24 07:11:53;;;;;;;7.78;1.10;;;;;;;;;;6109051;23;20076;-81
2024/03/24 07:14:18;;;;;;;3.83;1.42;;;;;;;;;;6133002;23;20115;-81
2024/03/24 07:16:44;;;;;;;4.20;1.40;;;;;;;;;;6084324;23;20104;-81
2024/03/24 07:19:09;;;;;;;5.22;1.40;;;;;;;;;;6109321;23;20399;-79
2024/03/24 07:21:35;;;;;;;6.00;1.40;;;;;;;;;;6108361;23;20014;-80
2024/03/24 07:24:01;;;;;;;3.90;1.27;;;;;;;;;;6111706;23;20012;-81
2024/03/24 07:26:26;;;;;;;5.18;1.20;;;;;;;;;;6112773;23;20452;-81
2024/03/24 07:28:52;;;;;;;3.58;1.25;;;;;;;;;;6094745;23;20036;-81
2024/03/24 07:31:18;;;;;;;2.50;1.00;;;;;;;;;;6098684;23;20088;-82
2024/03/24 07:33:50;;;;;;;5.30;1.98;;;;;;;;;;6120368;23;20001;-83
2024/03/24 07:36:15;;;;;;;5.68;1.63;;;;;;;;;;6088253;23;20002;-81
2024/03/24 07:38:41;;;;;;;6.45;1.60;;;;;;;;;;6087791;23;20040;-80
2024/03/24 07:41:10;;;;;;;3.42;1.48;;;;;;;;;;6109512;23;20017;-78
2024/03/24 07:43:35;;;;;;;4.53;1.20;;;;;;;;;;6084770;23;20013;-81
2024/03/24 07:46:01;;;;;;;2.65;1.40;;;;;;;;;;6108531;23;20072;-81
2024/03/24 07:48:27;;;;;;;4.10;1.60;;;;;;;;;;6109068;23;20451;-80
2024/03/24 07:50:53;;;;;;;3.05;1.55;;;;;;;;;;6086229;23;20013;-81
2024/03/24 07:53:21;;;;;;;2.75;1.38;;;;;;;;;;6085534;23;20012;-80
2024/03/24 07:55:47;;;;;;;4.07;1.58;;;;;;;;;;6084784;23;20006;-82
2024/03/24 07:58:12;;;;;;;3.35;1.35;;;;;;;;;;6133189;23;20017;-80
2024/03/24 08:00:38;;;;;;;5.53;1.73;;;;;;;;;;6159719;23;20016;-77
2024/03/24 08:03:04;;;;;;;4.95;1.45;;;;;;;;;;6132695;23;20463;-80
2024/03/24 08:05:30;;;;;;;4.07;2.30;;;;;;;;;;6084874;23;20006;-80
2024/03/24 08:07:57;;;;;;;2.72;1.20;;;;;;;;;;6111299;23;20012;-78
2024/03/24 08:10:23;;;;;;;5.88;1.67;;;;;;;;;;6085920;23;20009;-79
2024/03/24 08:12:49;;;;;;;4.88;1.77;;;;;;;;;;6110340;23;20001;-80
2024/03/24 08:15:14;;;;;;;6.30;1.63;;;;;;;;;;6085112;23;20092;-78
2024/03/24 08:17:40;;;;;;;6.47;1.98;;;;;;;;;;6110547;23;20396;-80
2024/03/24 08:20:06;;;;;;;4.53;1.90;;;;;;;;;;6086580;23;20070;-81
2024/03/24 08:22:32;;;;;;;3.95;1.70;;;;;;;;;;6087769;23;20006;-80
2024/03/24 08:24:57;;;;;;;4.65;2.35;;;;;;;;;;6087620;23;20006;-80
2024/03/24 08:27:23;;;;;;;4.82;1.63;;;;;;;;;;6110612;23;20016;-80
2024/03/24 08:29:48;;;;;;;2.97;1.45;;;;;;;;;;6087432;23;20462;-79
2024/03/24 08:32:16;;;;;;;3.95;1.65;;;;;;;;;;6088239;23;20009;-80
2024/03/24 08:34:42;;;;;;;4.72;2.15;;;;;;;;;;6086998;23;20021;-79
2024/03/24 08:37:08;;;;;;;4.57;1.60;;;;;;;;;;6087377;23;20618;-79
2024/03/24 08:39:34;;;;;;;3.35;1.50;;;;;;;;;;6137901;23;20012;-78
2024/03/24 08:42:00;;;;;;;4.88;1.80;;;;;;;;;;6135921;23;20081;-81
2024/03/24 08:44:26;;;;;;;4.85;1.42;;;;;;;;;;6087427;23;20009;-81
2024/03/24 08:46:51;;;;;;;3.03;1.40;;;;;;;;;;6088304;23;20540;-80
2024/03/24 08:49:17;;;;;;;3.85;1.73;;;;;;;;;;6088314;23;20064;-80
2024/03/24 08:51:42;;;;;;;6.00;1.60;;;;;;;;;;6088661;23;20140;-79
2024/03/24 08:54:08;;;;;;;3.42;1.45;;;;;;;;;;6136922;23;20013;-81
2024/03/24 08:56:34;;;;;;;4.13;1.90;;;;;;;;;;6121217;23;20065;-82
2024/03/24 08:58:59;;;;;;;4.13;1.90;;;;;;;;;;6100446;23;20009;-81
2024/03/24 09:01:26;;;;;;;5.03;1.75;;;;;;;;;;6106842;23;20016;-81
2024/03/24 09:03:52;;;;;;;7.07;2.47;;;;;;;;;;6107911;23;20005;-82
2024/03/24 09:06:18;;;;;;;6.60;2.60;;;;;;;;;;6153886;23;20013;-83
2024/03/24 09:08:44;;;;;;;5.05;2.20;;;;;;;;;;6123251;23;20010;-81
2024/03/24 09:11:09;;;;;;;4.53;2.28;;;;;;;;;;6100394;23;20006;-82
2024/03/24 09:13:36;;;;;;;7.05;2.78;;;;;;;;;;6126005;23;20002;-83
2024/03/24 09:16:02;;;;;;;6.20;2.50;;;;;;;;;;6119350;23;20029;-81
2024/03/24 09:18:28;;;;;;;6.88;2.47;;;;;;;;;;6086177;23;20016;-82
2024/03/24 09:20:56;;;;;;;5.43;2.60;;;;;;;;;;6088588;23;20013;-81
2024/03/24 09:23:24;;;;;;;3.83;1.98;;;;;;;;;;6113221;23;20010;-80
2024/03/24 09:25:50;;;;;;;4.10;2.25;;;;;;;;;;6090002;23;20013;-82
2024/03/24 09:28:16;;;;;;;4.00;2.10;;;;;;;;;;6139482;23;20018;-81
2024/03/24 09:30:42;;;;;;;4.85;1.90;;;;;;;;;;6105329;23;19993;-82
2024/03/24 09:33:07;;;;;;;5.20;2.33;;;;;;;;;;6128705;23;20028;-83
2024/03/24 09:35:33;;;;;;;3.97;2.10;;;;;;;;;;6099579;23;20063;-81
2024/03/24 09:37:58;;;;;;;7.15;2.10;;;;;;;;;;6098253;23;20010;-83
2024/03/24 09:40:25;;;;;;;5.72;2.95;;;;;;;;;;6093543;23;20010;-83
2024/03/24 09:42:54;;;;;;;3.47;2.03;;;;;;;;;;6112159;23;20013;-82
2024/03/24 09:45:21;;;;;;;7.10;2.40;;;;;;;;;;6133431;23;20006;-82
2024/03/24 09:47:48;;;;;;;7.85;2.53;;;;;;;;;;6085809;23;20455;-81
2024/03/24 09:50:14;;;;;;;3.97;2.22;;;;;;;;;;6135354;23;19998;-81
2024/03/24 09:52:40;;;;;;;3.55;1.80;;;;;;;;;;6110748;23;20502;-83
2024/03/24 09:55:07;;;;;;;4.63;2.40;;;;;;;;;;6087803;23;20064;-82
2024/03/24 09:57:34;;;;;;;6.28;1.98;;;;;;;;;;6087612;23;20005;-83
2024/03/24 10:00:03;;;;;;;5.45;2.08;;;;;;;;;;6088956;23;20016;-82
2024/03/24 10:02:50;;;;;;;3.90;2.20;;;;;;;;;;6049248;23;20007;-83
2024/03/24 10:05:16;;;;;;;4.68;1.70;;;;;;;;;;6055043;23;20018;-85
2024/03/24 10:07:42;;;;;;;2.95;1.70;;;;;;;;;;6034659;23;20007;-83
2024/03/24 10:10:08;;;;;;;5.25;1.70;;;;;;;;;;6032743;23;20097;-82
2024/03/24 10:12:34;;;;;;;7.60;1.90;;;;;;;;;;6056530;23;20096;-80
2024/03/24 10:15:16;;;;;;;3.30;1.65;;;;;;;;;;6009586;23;20007;-83
2024/03/24 10:17:42;;;;;;;5.88;2.08;;;;;;;;;;6055216;23;20026;-82
2024/03/24 10:20:10;;;;;;;4.60;2.03;;;;;;;;;;6002237;23;20062;-81
2024/03/24 10:22:36;;;;;;;5.00;1.70;;;;;;;;;;6050156;23;20035;-82
2024/03/24 10:25:02;;;;;;;3.35;1.90;;;;;;;;;;6025603;23;20341;-83
2024/03/24 10:27:31;;;;;;;6.05;2.17;;;;;;;;;;6000060;23;20082;-82
2024/03/24 10:29:57;;;;;;;3.80;2.28;;;;;;;;;;6070796;23;20453;-79
2024/03/24 10:32:25;;;;;;;3.17;1.75;;;;;;;;;;6000613;23;20009;-82
2024/03/24 10:34:50;;;;;;;3.53;1.70;;;;;;;;;;6046766;23;20018;-82
2024/03/24 10:37:16;;;;;;;3.22;1.70;;;;;;;;;;5999647;23;20007;-82
2024/03/24 10:39:42;;;;;;;2.95;1.55;;;;;;;;;;6027163;23;20052;-80
2024/03/24 10:42:09;;;;;;;3.65;1.92;;;;;;;;;;6111656;23;20321;-81
2024/03/24 10:44:35;;;;;;;4.50;1.65;;;;;;;;;;6110720;23;20013;-80
2024/03/24 10:47:01;;;;;;;3.35;1.50;;;;;;;;;;6088962;23;20013;-80
2024/03/24 10:49:27;;;;;;;4.28;1.52;;;;;;;;;;6088035;23;20009;-80
2024/03/24 10:51:57;;;;;;;3.22;1.67;;;;;;;;;;6109716;23;20459;-81
2024/03/24 10:54:22;;;;;;;2.35;1.30;;;;;;;;;;6110092;23;20076;-78
2024/03/24 10:56:48;;;;;;;2.45;1.38;;;;;;;;;;6134370;23;20002;-80
2024/03/24 10:59:15;;;;;;;1.90;1.10;;;;;;;;;;6134133;23;20013;-81
2024/03/24 11:01:46;;;;;;;3.00;1.17;;;;;;;;;;6087081;23;20132;-82
2024/03/24 11:04:13;;;;;;;;;;;;;;;;;;6086204;23;20136;-80
2024/03/24 11:06:39;;;;;;;3.22;1.10;;;;;;;;;;6086234;23;19916;-81
2024/03/24 11:09:05;;;;;;;2.72;1.30;;;;;;;;;;6133466;23;20014;-79
2024/03/24 11:11:32;;;;;;;1.52;0.80;;;;;;;;;;6109679;23;20012;-80
2024/03/24 11:14:01;;;;;;;2.28;1.10;;;;;;;;;;6086120;23;20006;-80
2024/03/24 11:16:27;;;;;;;1.58;0.88;;;;;;;;;;6085763;23;20006;-82
2024/03/24 11:18:56;;;;;;;;;;;;;;;;;;6111710;23;20020;-80
2024/03/24 11:21:31;;;;;;;2.70;0.77;;;;;;;;;;6110267;23;19904;-81
2024/03/24 11:23:57;;;;;;;1.48;0.80;;;;;;;;;;6109458;23;20020;-79
2024/03/24 11:26:29;;;;;;;1.35;0.80;;;;;;;;;;6084580;23;20076;-79
2024/03/24 11:28:55;;;;;;;3.03;0.98;;;;;;;;;;6108887;23;20107;-80
2024/03/24 11:31:20;;;;;;;1.45;0.85;;;;;;;;;;6109087;23;20459;-81
2024/03/24 11:33:58;;;;;;;2.15;0.93;;;;;;;;;;6111777;23;20006;-79
2024/03/24 11:36:24;;;;;;;1.75;0.80;;;;;;;;;;6086489;23;20101;-81
2024/03/24 11:38:52;;;;;;;1.33;0.73;;;;;;;;;;6086058;23;20009;-80
2024/03/24 11:41:18;;;;;;;2.42;0.80;;;;;;;;;;6110388;23;20366;-80
2024/03/24 11:43:53;;;;;;;3.47;1.00;;;;;;;;;;6140494;23;20005;-81
2024/03/24 11:46:19;;;;;;;1.90;0.70;;;;;;;;;;6091477;23;20017;-80
2024/03/24 11:48:45;;;;;;;4.30;1.02;;;;;;;;;;6112368;23;20020;-79
2024/03/24 11:51:12;;;;;;;3.25;0.90;;;;;;;;;;6111421;23;20376;-81
2024/03/24 11:53:38;;;;;;;1.95;0.98;;;;;;;;;;6112402;23;20010;-81
2024/03/24 11:56:05;;;;;;;1.80;0.95;;;;;;;;;;6136914;23;20008;-81
2024/03/24 11:58:30;;;;;;;2.28;1.00;;;;;;;;;;6114053;23;20017;-82
2024/03/24 12:00:56;;;;;;;1.35;0.60;;;;;;;;;;6092191;23;20376;-79
2024/03/24 12:03:21;;;;;;;3.30;1.17;;;;;;;;;;6088146;23;20005;-80
2024/03/24 12:05:48;;;;;;;2.88;1.20;;;;;;;;;;6112744;23;20009;-81
2024/03/24 12:08:16;;;;;;;3.60;1.15;;;;;;;;;;6089292;23;20009;-82
2024/03/24 12:10:42;;;;;;;1.90;1.15;;;;;;;;;;6113739;23;20060;-79
2024/03/24 12:13:08;;;;;;;2.90;1.20;;;;;;;;;;6112385;23;20395;-82
2024/03/24 12:15:33;;;;;;;2.25;1.33;;;;;;;;;;6092110;23;20073;-81
2024/03/24 12:18:06;;;;;;;4.50;1.40;;;;;;;;;;6115232;23;20016;-82
2024/03/24 12:20:31;;;;;;;2.97;1.38;;;;;;;;;;6112199;23;20033;-82
2024/03/24 12:22:57;;;;;;;2.72;1.20;;;;;;;;;;6089713;23;20014;-82
2024/03/24 12:25:23;;;;;;;3.63;1.60;;;;;;;;;;6114425;23;20021;-82
2024/03/24 12:27:52;;;;;;;3.08;1.42;;;;;;;;;;6094588;23;20014;-81
2024/03/24 12:30:21;;;;;;;2.15;1.23;;;;;;;;;;6116214;23;20006;-81
2024/03/24 12:32:47;;;;;;;3.72;1.30;;;;;;;;;;6118156;23;20419;-82
2024/03/24 12:35:14;;;;;;;2.95;1.30;;;;;;;;;;6149472;23;20074;-81
2024/03/24 12:37:40;;;;;;;4.53;1.60;;;;;;;;;;6126867;23;20009;-82
2024/03/24 12:40:05;;;;;;;2.22;1.17;;;;;;;;;;6104460;23;20070;-83
2024/03/24 12:42:33;;;;;;;2.78;1.42;;;;;;;;;;6099878;23;20006;-83
2024/03/24 12:45:08;;;;;;;8.15;1.67;;;;;;;;;;6121893;23;20372;-82
2024/03/24 12:47:34;;;;;;;5.00;1.45;;;;;;;;;;6146265;23;20002;-82
2024/03/24 12:49:59;;;;;;;3.53;1.50;;;;;;;;;;6122511;23;20017;-83
2024/03/24 12:52:26;;;;;;;2.88;1.20;;;;;;;;;;6099287;23;20009;-83
2024/03/24 12:54:52;;;;;;;3.00;1.23;;;;;;;;;;6096097;23;20037;-83
2024/03/24 12:57:17;;;;;;;2.67;1.00;;;;;;;;;;6125922;23;20016;-82
2024/03/24 12:59:56;;;;;;;2.60;1.20;;;;;;;;;;6102196;23;20032;-83
2024/03/24 13:02:26;;;;;;;3.78;1.40;;;;;;;;;;6124612;23;20001;-83
2024/03/24 13:04:51;;;;;;;2.58;1.42;;;;;;;;;;6098847;23;20089;-83
2024/03/24 13:07:18;;;;;;;2.75;1.30;;;;;;;;;;6098317;23;20025;-82
2024/03/24 13:09:45;;;;;;;3.58;1.25;;;;;;;;;;6119033;23;20029;-83
2024/03/24 13:12:11;;;;;;;3.42;1.30;;;;;;;;;;6101170;23;20006;-81
2024/03/24 13:14:37;;;;;;;2.63;1.23;;;;;;;;;;6103018;23;20017;-83
2024/03/24 13:17:18;;;;;;;2.72;1.25;;;;;;;;;;6102582;23;20033;-82
2024/03/24 13:19:49;;;;;;;2.05;1.00;;;;;;;;;;6150709;23;20061;-82
2024/03/24 13:22:15;;;;;;;3.60;1.33;;;;;;;;;;6103279;23;19998;-82
2024/03/24 13:24:43;;;;;;;2.95;1.20;;;;;;;;;;6119806;23;20461;-82
2024/03/24 13:27:27;;;;;;;2.42;1.35;;;;;;;;;;6113029;23;20009;-81
2024/03/24 13:29:53;;;;;;;3.80;1.10;;;;;;;;;;6114790;23;20060;-82
2024/03/24 13:32:19;;;;;;;3.15;1.10;;;;;;;;;;6087184;23;20080;-79
2024/03/24 13:34:45;;;;;;;2.17;1.10;;;;;;;;;;6087962;23;20014;-78
2024/03/24 13:37:13;;;;;;;3.75;0.90;;;;;;;;;;6085889;23;20013;-81
2024/03/24 13:39:57;;;;;;;3.60;1.23;;;;;;;;;;6086863;23;20009;-80
2024/03/24 13:42:29;;;;;;;3.28;1.10;;;;;;;;;;6111522;23;20013;-80
2024/03/24 13:44:58;;;;;;;3.25;1.20;;;;;;;;;;6087562;23;20092;-78
2024/03/24 13:47:32;;;;;;;4.28;1.05;;;;;;;;;;6138771;23;20010;-83
2024/03/24 13:50:00;;;;;;;2.67;0.98;;;;;;;;;;6088805;23;20041;-82
2024/03/24 13:52:31;;;;;;;2.50;0.80;;;;;;;;;;6092236;23;20008;-80
2024/03/24 13:55:05;;;;;;;3.50;1.23;;;;;;;;;;6143898;23;20010;-79
2024/03/24 13:57:33;;;;;;;2.38;0.90;;;;;;;;;;6121772;23;20009;-80
2024/03/24 13:59:59;;;;;;;2.90;1.08;;;;;;;;;;6124619;23;20012;-79
2024/03/24 14:02:25;;;;;;;4.88;1.20;;;;;;;;;;6098821;23;20013;-80
2024/03/24 14:04:51;;;;;;;3.08;1.00;;;;;;;;;;6122638;23;20057;-81
2024/03/24 14:07:16;;;;;;;1.60;0.88;;;;;;;;;;6097032;23;20022;-80
2024/03/24 14:09:47;;;;;;;1.95;0.90;;;;;;;;;;6099864;23;20014;-81
2024/03/24 14:12:24;;;;;;;3.65;1.55;;;;;;;;;;6102236;23;20012;-83
2024/03/24 14:14:52;;;;;;;3.22;0.93;;;;;;;;;;6123519;23;20009;-81
2024/03/24 14:17:23;;;;;;;2.90;1.10;;;;;;;;;;6099397;23;20010;-82
2024/03/24 14:19:53;;;;;;;2.03;1.05;;;;;;;;;;6099598;23;20013;-81
2024/03/24 14:22:30;;;;;;;3.75;1.25;;;;;;;;;;6151179;23;20067;-82
2024/03/24 14:25:17;;;;;;;6.03;1.20;;;;;;;;;;6104275;23;20460;-82
2024/03/24 14:27:43;;;;;;;3.00;1.10;;;;;;;;;;6103389;23;20037;-81
2024/03/24 14:30:09;;;;;;;2.90;1.23;;;;;;;;;;6101441;23;20228;-81
2024/03/24 14:32:35;;;;;;;4.90;1.52;;;;;;;;;;6118532;23;20010;-82
2024/03/24 14:35:01;;;;;;;3.05;1.23;;;;;;;;;;6091827;23;20324;-79
2024/03/24 14:37:27;;;;;;;2.92;0.90;;;;;;;;;;6113811;23;20032;-81
2024/03/24 14:40:11;;;;;;;2.35;1.10;;;;;;;;;;6087645;23;20020;-78
2024/03/24 14:42:37;;;;;;;3.05;1.10;;;;;;;;;;6137642;23;20041;-82
2024/03/24 14:45:12;;;;;;;2.85;1.20;;;;;;;;;;6089888;23;20013;-84
2024/03/24 14:47:45;;;;;;;1.35;0.80;;;;;;;;;;6113881;23;20021;-81
2024/03/24 14:50:14;;;;;;;6.10;1.35;;;;;;;;;;6112360;23;20033;-81
2024/03/24 14:52:39;;;;;;;3.00;0.93;;;;;;;;;;6092414;23;20376;-83
2024/03/24 14:55:05;;;;;;;4.57;1.23;;;;;;;;;;6115140;23;20025;-83
2024/03/24 14:57:31;;;;;;;6.13;1.20;;;;;;;;;;6091053;23;20013;-82
2024/03/24 14:59:58;;;;;;;2.25;1.10;;;;;;;;;;6092071;23;20013;-82
2024/03/24 15:02:24;;;;;;;2.95;0.98;;;;;;;;;;6091626;23;20014;-81
2024/03/24 15:04:50;;;;;;;1.80;1.00;;;;;;;;;;6141588;23;20023;-83
2024/03/24 15:07:16;;;;;;;2.45;0.80;;;;;;;;;;6118741;23;20422;-83
2024/03/24 15:09:45;;;;;;;5.18;1.60;;;;;;;;;;6094434;23;20014;-83
2024/03/24 15:12:11;;;;;;;;;;;;;;;;;;6096760;23;20016;-84